Time;durP1;ratioP1;P1;durP2;ratioP2;P2;SDS_P1;SDS_P2;PMS_P1;PMS_P2;Temp;Humidity;BMP_temperature;BMP_pressure;BME280_temperature;BME280_humidity;BME280_pressure;Samples;Min_cycle;Max_cycle;Signal;HPM_P1;HPM_P2
2022/11/15 00:00:05;;;;;;;7.82;5.38;;;;;;;;;;5029661;28;20064;-73
2022/11/15 00:02:30;;;;;;;8.13;4.82;;;;;;;;;;5029269;28;20048;-73
2022/11/15 00:04:56;;;;;;;10.02;5.07;;;;;;;;;;5029333;28;20473;-72
2022/11/15 00:07:21;;;;;;;9.25;5.13;;;;;;;;;;5029122;28;20113;-74
2022/11/15 00:09:46;;;;;;;9.02;6.00;;;;;;;;;;5029209;28;20033;-73
2022/11/15 00:12:12;;;;;;;10.55;6.75;;;;;;;;;;5028847;28;20056;-72
2022/11/15 00:14:37;;;;;;;9.90;6.38;;;;;;;;;;5029262;28;20508;-74
2022/11/15 00:17:02;;;;;;;10.27;6.45;;;;;;;;;;5029089;28;20037;-73
2022/11/15 00:19:28;;;;;;;10.80;6.45;;;;;;;;;;5029258;28;20029;-73
2022/11/15 00:21:53;;;;;;;10.88;6.45;;;;;;;;;;5029205;28;20037;-73
2022/11/15 00:24:19;;;;;;;9.88;6.95;;;;;;;;;;5029045;28;20049;-72
2022/11/15 00:26:44;;;;;;;10.02;6.85;;;;;;;;;;5010832;28;20040;-73
2022/11/15 00:29:09;;;;;;;11.68;8.27;;;;;;;;;;5029245;28;20480;-73
2022/11/15 00:31:35;;;;;;;11.70;8.55;;;;;;;;;;5028731;28;20029;-73
2022/11/15 00:34:00;;;;;;;11.02;7.72;;;;;;;;;;5029073;28;20018;-73
2022/11/15 00:36:26;;;;;;;10.57;7.15;;;;;;;;;;5028851;28;20045;-73
2022/11/15 00:38:51;;;;;;;10.95;6.57;;;;;;;;;;5029169;28;20027;-72
2022/11/15 00:41:16;;;;;;;10.98;6.65;;;;;;;;;;5029123;28;20041;-72
2022/11/15 00:43:43;;;;;;;9.77;6.97;;;;;;;;;;5028684;28;20543;-72
2022/11/15 00:46:09;;;;;;;13.10;8.57;;;;;;;;;;5028965;28;20064;-72
2022/11/15 00:48:35;;;;;;;12.95;7.70;;;;;;;;;;5028650;28;20025;-73
2022/11/15 00:51:01;;;;;;;12.02;8.30;;;;;;;;;;5028958;28;20029;-72
2022/11/15 00:53:26;;;;;;;13.20;7.93;;;;;;;;;;5028511;28;20032;-73
2022/11/15 00:55:51;;;;;;;11.27;7.32;;;;;;;;;;5029046;28;20029;-72
2022/11/15 00:58:17;;;;;;;10.38;6.38;;;;;;;;;;5028419;28;20022;-72
2022/11/15 01:00:42;;;;;;;9.38;6.20;;;;;;;;;;5031787;28;20112;-72
2022/11/15 01:03:08;;;;;;;10.45;5.90;;;;;;;;;;5032483;28;20103;-72
2022/11/15 01:05:33;;;;;;;9.02;5.20;;;;;;;;;;5032393;28;20038;-72
2022/11/15 01:07:58;;;;;;;7.38;4.60;;;;;;;;;;5032238;28;20029;-72
2022/11/15 01:10:25;;;;;;;8.00;4.10;;;;;;;;;;5032547;28;20032;-73
2022/11/15 01:12:51;;;;;;;6.93;3.90;;;;;;;;;;5031973;28;20029;-73
2022/11/15 01:15:16;;;;;;;8.02;4.28;;;;;;;;;;5032239;28;20083;-72
2022/11/15 01:17:42;;;;;;;6.82;4.10;;;;;;;;;;5032283;28;20076;-73
2022/11/15 01:20:08;;;;;;;6.75;3.75;;;;;;;;;;5032457;28;20117;-72
2022/11/15 01:22:34;;;;;;;6.63;3.47;;;;;;;;;;5032012;28;20094;-73
2022/11/15 01:24:59;;;;;;;7.03;3.60;;;;;;;;;;5032277;28;20481;-72
2022/11/15 01:27:24;;;;;;;5.25;3.40;;;;;;;;;;5031391;28;20064;-73
2022/11/15 01:29:50;;;;;;;6.82;3.55;;;;;;;;;;5032130;28;20025;-74
2022/11/15 01:32:16;;;;;;;5.93;3.33;;;;;;;;;;5031704;28;20017;-73
2022/11/15 01:34:41;;;;;;;5.80;3.45;;;;;;;;;;5032088;28;20033;-72
2022/11/15 01:37:07;;;;;;;5.80;3.35;;;;;;;;;;5014005;28;20656;-73
2022/11/15 01:39:32;;;;;;;6.25;3.53;;;;;;;;;;5031922;28;20026;-73
2022/11/15 01:41:57;;;;;;;6.70;3.60;;;;;;;;;;5031693;28;20033;-73
2022/11/15 01:44:42;;;;;;;6.93;3.80;;;;;;;;;;5031762;28;20469;-73
2022/11/15 01:47:25;;;;;;;6.93;4.38;;;;;;;;;;5031662;28;20029;-73
2022/11/15 01:50:13;;;;;;;7.47;4.03;;;;;;;;;;5031705;28;20400;-73
2022/11/15 01:52:40;;;;;;;11.50;4.75;;;;;;;;;;5031168;28;20041;-73
2022/11/15 01:55:10;;;;;;;7.72;4.25;;;;;;;;;;5031542;28;20033;-73
2022/11/15 01:57:36;;;;;;;8.82;4.93;;;;;;;;;;5013400;28;20030;-73
2022/11/15 02:00:04;;;;;;;7.22;4.35;;;;;;;;;;5031634;28;20029;-73
2022/11/15 02:02:30;;;;;;;6.90;4.55;;;;;;;;;;5031550;28;20037;-72
2022/11/15 02:04:55;;;;;;;8.82;4.90;;;;;;;;;;5031319;28;20053;-72
2022/11/15 02:07:22;;;;;;;6.30;4.35;;;;;;;;;;5031258;28;20200;-72
2022/11/15 02:09:48;;;;;;;9.57;4.78;;;;;;;;;;5031268;28;20484;-72
2022/11/15 02:12:18;;;;;;;10.43;5.10;;;;;;;;;;5030487;28;20148;-73
2022/11/15 02:14:48;;;;;;;6.77;4.17;;;;;;;;;;5031050;28;20036;-72
2022/11/15 02:17:28;;;;;;;9.47;4.50;;;;;;;;;;5031295;28;20612;-73
2022/11/15 02:20:17;;;;;;;7.43;4.40;;;;;;;;;;5031203;28;20032;-73
2022/11/15 02:23:30;;;;;;;8.82;4.63;;;;;;;;;;5031105;28;20163;-73
2022/11/15 02:26:42;;;;;;;9.45;4.00;;;;;;;;;;4969545;28;20390;-73
2022/11/15 02:29:11;;;;;;;7.28;3.92;;;;;;;;;;4968996;28;20054;-72
2022/11/15 02:31:51;;;;;;;6.28;4.40;;;;;;;;;;5018449;28;20392;-73
2022/11/15 02:34:32;;;;;;;7.20;4.20;;;;;;;;;;5030534;28;20052;-73
2022/11/15 02:37:00;;;;;;;;;;;;;;;;;;5031194;28;20909;-73
2022/11/15 02:39:28;;;;;;;8.32;4.18;;;;;;;;;;5012891;28;19944;-72
2022/11/15 02:45:36;;;;;;;10.20;4.00;;;;;;;;;;5005071;28;20041;-72
2022/11/15 02:48:05;;;;;;;7.22;3.90;;;;;;;;;;5030456;28;20477;-73
2022/11/15 02:50:33;;;;;;;6.32;3.90;;;;;;;;;;5030499;28;20037;-73
2022/11/15 02:52:58;;;;;;;6.13;3.63;;;;;;;;;;5012698;28;20013;-73
2022/11/15 02:55:43;;;;;;;6.45;4.00;;;;;;;;;;5030318;28;20028;-73
2022/11/15 02:58:17;;;;;;;7.07;4.00;;;;;;;;;;5030141;28;20022;-72
2022/11/15 03:01:19;;;;;;;6.65;3.80;;;;;;;;;;5030527;28;20021;-72
2022/11/15 03:04:13;;;;;;;8.00;4.10;;;;;;;;;;5012520;28;20401;-72
2022/11/15 03:06:52;;;;;;;7.18;3.63;;;;;;;;;;5030080;28;20050;-73
2022/11/15 03:09:56;;;;;;;5.78;3.40;;;;;;;;;;5030058;28;20027;-73
2022/11/15 03:12:34;;;;;;;8.10;3.88;;;;;;;;;;5029920;28;20087;-72
2022/11/15 03:15:05;;;;;;;6.30;3.67;;;;;;;;;;5029731;28;20025;-73
2022/11/15 03:17:43;;;;;;;6.43;3.65;;;;;;;;;;5030225;28;20026;-73
2022/11/15 03:20:10;;;;;;;8.45;3.42;;;;;;;;;;5029992;28;20025;-72
2022/11/15 03:22:43;;;;;;;7.55;3.78;;;;;;;;;;5029662;28;20544;-72
2022/11/15 03:25:13;;;;;;;9.90;3.95;;;;;;;;;;5029701;28;20040;-72
2022/11/15 03:27:45;;;;;;;6.40;3.40;;;;;;;;;;5029315;28;20397;-73
2022/11/15 03:30:11;;;;;;;7.50;3.65;;;;;;;;;;5029782;28;20043;-72
2022/11/15 03:32:43;;;;;;;6.03;3.10;;;;;;;;;;5029952;28;20021;-72
2022/11/15 03:35:17;;;;;;;12.20;3.75;;;;;;;;;;5029620;28;20450;-73
2022/11/15 03:38:17;;;;;;;9.50;3.70;;;;;;;;;;5030086;28;20033;-72
2022/11/15 03:41:08;;;;;;;6.63;3.47;;;;;;;;;;5029871;28;20021;-73
2022/11/15 03:43:45;;;;;;;8.77;3.45;;;;;;;;;;5029437;28;20171;-73
2022/11/15 03:46:13;;;;;;;6.43;3.63;;;;;;;;;;5029551;28;20543;-73
2022/11/15 03:48:43;;;;;;;5.40;3.22;;;;;;;;;;5029494;28;20112;-74
2022/11/15 03:51:10;;;;;;;7.55;3.25;;;;;;;;;;5029493;28;20036;-73
2022/11/15 03:53:35;;;;;;;7.70;3.53;;;;;;;;;;5029634;28;20033;-73
2022/11/15 03:56:01;;;;;;;11.38;3.80;;;;;;;;;;5029416;28;20052;-73
2022/11/15 03:58:26;;;;;;;7.95;3.53;;;;;;;;;;5029312;28;20075;-73
2022/11/15 04:00:51;;;;;;;7.30;3.47;;;;;;;;;;5029420;28;20481;-73
2022/11/15 04:03:17;;;;;;;7.22;3.47;;;;;;;;;;5029912;28;20061;-73
2022/11/15 04:05:42;;;;;;;11.93;3.42;;;;;;;;;;5028913;28;20092;-73
2022/11/15 04:08:08;;;;;;;5.55;3.42;;;;;;;;;;5029440;28;20108;-73
2022/11/15 04:10:33;;;;;;;7.75;3.38;;;;;;;;;;5029161;28;20027;-73
2022/11/15 04:12:58;;;;;;;9.20;3.67;;;;;;;;;;5029015;28;20053;-72
2022/11/15 04:15:24;;;;;;;8.77;3.60;;;;;;;;;;5029025;28;20521;-73
2022/11/15 04:17:55;;;;;;;8.23;3.75;;;;;;;;;;5029488;28;20038;-74
2022/11/15 04:26:00;;;;;;;9.02;3.65;;;;;;;;;;5028985;28;20075;-72
2022/11/15 04:28:26;;;;;;;8.18;3.50;;;;;;;;;;5029082;28;20029;-73
2022/11/15 04:30:51;;;;;;;7.00;3.60;;;;;;;;;;5029104;28;20099;-72
2022/11/15 04:33:17;;;;;;;9.30;3.70;;;;;;;;;;5011231;28;20030;-73
2022/11/15 04:35:43;;;;;;;11.75;3.95;;;;;;;;;;5014080;28;20025;-72
2022/11/15 04:38:10;;;;;;;10.27;3.95;;;;;;;;;;5033327;28;20094;-73
2022/11/15 04:40:36;;;;;;;9.02;3.70;;;;;;;;;;5032815;28;20040;-73
2022/11/15 04:43:02;;;;;;;10.90;4.10;;;;;;;;;;5033085;28;20025;-73
2022/11/15 04:45:27;;;;;;;8.18;3.75;;;;;;;;;;5032674;28;20022;-72
2022/11/15 04:47:53;;;;;;;9.00;4.18;;;;;;;;;;5015236;28;20608;-72
2022/11/15 04:50:18;;;;;;;10.73;4.32;;;;;;;;;;5032654;28;20108;-72
2022/11/15 04:52:51;;;;;;;9.98;4.30;;;;;;;;;;5033000;28;20037;-71
2022/11/15 04:55:17;;;;;;;9.63;3.97;;;;;;;;;;5032469;28;20493;-72
2022/11/15 04:57:42;;;;;;;9.13;4.18;;;;;;;;;;5032568;28;20018;-72
2022/11/15 05:00:12;;;;;;;11.18;4.30;;;;;;;;;;5032558;28;20057;-72
2022/11/15 05:05:21;;;;;;;10.43;4.13;;;;;;;;;;5032429;28;20052;-72
2022/11/15 05:07:47;;;;;;;10.77;4.43;;;;;;;;;;5032826;28;20030;-73
2022/11/15 05:10:12;;;;;;;12.15;4.80;;;;;;;;;;5032259;28;20539;-73
2022/11/15 05:12:38;;;;;;;11.30;4.40;;;;;;;;;;5032159;28;20021;-72
2022/11/15 05:15:04;;;;;;;11.73;4.68;;;;;;;;;;5032022;28;20041;-73
2022/11/15 05:17:29;;;;;;;13.88;5.38;;;;;;;;;;5032442;28;20478;-73
2022/11/15 05:19:54;;;;;;;10.57;4.70;;;;;;;;;;5032360;28;20029;-73
2022/11/15 05:22:20;;;;;;;12.32;4.57;;;;;;;;;;5032403;28;20053;-73
2022/11/15 05:24:45;;;;;;;12.65;4.80;;;;;;;;;;5032163;28;20026;-73
2022/11/15 05:27:11;;;;;;;11.95;4.75;;;;;;;;;;5031585;28;20030;-73
2022/11/15 05:29:36;;;;;;;16.30;5.20;;;;;;;;;;5032043;28;20030;-73
2022/11/15 05:32:05;;;;;;;8.88;4.53;;;;;;;;;;5031796;28;20612;-73
2022/11/15 05:34:31;;;;;;;11.52;4.93;;;;;;;;;;5032184;28;20621;-73
2022/11/15 05:36:56;;;;;;;11.18;4.75;;;;;;;;;;5031577;28;20029;-72
2022/11/15 05:39:21;;;;;;;12.18;4.93;;;;;;;;;;5032052;28;20549;-73
2022/11/15 05:41:55;;;;;;;9.80;5.35;;;;;;;;;;5031830;28;20036;-73
2022/11/15 05:44:23;;;;;;;13.30;5.10;;;;;;;;;;5014065;28;20028;-74
2022/11/15 05:46:50;;;;;;;11.63;5.60;;;;;;;;;;5030383;28;20036;-73
2022/11/15 05:49:19;;;;;;;13.80;5.53;;;;;;;;;;5031566;28;20030;-72
2022/11/15 05:51:47;;;;;;;11.25;5.57;;;;;;;;;;5031480;28;20030;-73
2022/11/15 05:54:13;;;;;;;13.15;5.32;;;;;;;;;;5031840;28;20477;-73
2022/11/15 05:56:39;;;;;;;14.25;5.78;;;;;;;;;;5031256;28;20037;-73
2022/11/15 05:59:05;;;;;;;13.18;5.47;;;;;;;;;;5031473;28;20040;-73
2022/11/15 06:01:30;;;;;;;13.07;5.68;;;;;;;;;;5013708;28;20032;-72
2022/11/15 06:03:56;;;;;;;13.88;6.00;;;;;;;;;;5031314;28;20029;-73
2022/11/15 06:06:21;;;;;;;13.48;5.85;;;;;;;;;;5030782;28;20061;-73
2022/11/15 06:08:47;;;;;;;14.63;5.90;;;;;;;;;;5031442;28;20393;-73
2022/11/15 06:11:13;;;;;;;13.88;5.55;;;;;;;;;;5031182;28;20037;-73
2022/11/15 06:13:38;;;;;;;13.88;6.47;;;;;;;;;;5031072;28;20021;-73
2022/11/15 06:16:04;;;;;;;11.85;5.95;;;;;;;;;;5031286;28;20109;-73
2022/11/15 06:18:33;;;;;;;15.95;6.10;;;;;;;;;;5031395;28;20060;-73
2022/11/15 06:21:00;;;;;;;14.02;6.20;;;;;;;;;;5031176;28;20110;-73
2022/11/15 06:23:25;;;;;;;12.35;5.43;;;;;;;;;;5031290;28;20112;-73
2022/11/15 06:25:50;;;;;;;11.57;5.78;;;;;;;;;;5030727;28;20544;-73
2022/11/15 06:28:16;;;;;;;12.15;5.53;;;;;;;;;;5030460;28;20034;-73
2022/11/15 06:30:41;;;;;;;11.40;6.00;;;;;;;;;;5030840;28;20022;-73
2022/11/15 06:33:08;;;;;;;10.77;5.63;;;;;;;;;;5030973;28;20104;-74
2022/11/15 06:35:35;;;;;;;13.20;5.65;;;;;;;;;;5030701;28;20033;-73
2022/11/15 06:38:10;;;;;;;18.58;6.07;;;;;;;;;;5030897;28;20033;-73
2022/11/15 06:40:37;;;;;;;18.02;5.80;;;;;;;;;;5030629;28;20021;-73
2022/11/15 06:43:04;;;;;;;16.05;5.70;;;;;;;;;;5030516;28;20028;-72
2022/11/15 06:45:30;;;;;;;16.90;6.05;;;;;;;;;;5030458;28;20112;-73
2022/11/15 06:47:55;;;;;;;16.52;6.07;;;;;;;;;;5030384;28;20450;-73
2022/11/15 06:50:20;;;;;;;12.15;5.63;;;;;;;;;;5030730;28;20017;-72
2022/11/15 06:52:46;;;;;;;12.98;5.50;;;;;;;;;;5030357;28;20028;-73
2022/11/15 06:55:11;;;;;;;16.75;6.20;;;;;;;;;;5012862;28;20135;-73
2022/11/15 06:57:37;;;;;;;15.45;6.07;;;;;;;;;;5012003;28;20040;-73
2022/11/15 07:00:04;;;;;;;16.45;5.78;;;;;;;;;;5030529;28;20517;-72
2022/11/15 07:02:30;;;;;;;13.02;5.88;;;;;;;;;;5030039;28;20393;-72
2022/11/15 07:04:55;;;;;;;16.92;5.70;;;;;;;;;;5029935;28;20044;-73
2022/11/15 07:07:21;;;;;;;17.02;6.15;;;;;;;;;;5029727;28;20040;-72
2022/11/15 07:09:46;;;;;;;11.50;5.70;;;;;;;;;;5030306;28;20029;-72
2022/11/15 07:12:11;;;;;;;18.85;6.80;;;;;;;;;;5029530;28;20017;-73
2022/11/15 07:14:37;;;;;;;18.02;6.55;;;;;;;;;;5012121;28;20120;-72
2022/11/15 07:17:05;;;;;;;12.18;5.47;;;;;;;;;;5012107;28;20024;-72
2022/11/15 07:19:31;;;;;;;12.63;5.90;;;;;;;;;;5030155;28;20100;-73
2022/11/15 07:21:56;;;;;;;11.57;5.43;;;;;;;;;;5029868;28;20105;-73
2022/11/15 07:24:22;;;;;;;15.82;5.60;;;;;;;;;;5029922;28;20028;-72
2022/11/15 07:26:47;;;;;;;13.23;5.80;;;;;;;;;;5029417;28;20061;-72
2022/11/15 07:29:13;;;;;;;16.55;5.43;;;;;;;;;;5029583;28;20035;-72
2022/11/15 07:31:38;;;;;;;11.82;5.28;;;;;;;;;;5029527;28;20029;-72
2022/11/15 07:34:04;;;;;;;15.68;5.20;;;;;;;;;;5029780;28;20029;-73
2022/11/15 07:36:29;;;;;;;13.27;5.10;;;;;;;;;;5029490;28;20056;-73
2022/11/15 07:38:55;;;;;;;11.82;5.10;;;;;;;;;;5011988;28;20076;-72
2022/11/15 07:41:20;;;;;;;11.10;4.70;;;;;;;;;;5029529;28;20044;-72
2022/11/15 07:43:46;;;;;;;9.98;4.95;;;;;;;;;;5029196;28;20021;-73
2022/11/15 07:46:11;;;;;;;9.65;4.57;;;;;;;;;;5029248;28;20029;-72
2022/11/15 07:48:39;;;;;;;12.50;4.90;;;;;;;;;;5029475;28;20084;-73
2022/11/15 07:51:06;;;;;;;12.63;5.07;;;;;;;;;;5029447;28;20508;-73
2022/11/15 07:53:31;;;;;;;12.90;4.50;;;;;;;;;;5029227;28;20030;-72
2022/11/15 07:55:56;;;;;;;11.65;4.82;;;;;;;;;;5029499;28;20373;-72
2022/11/15 07:58:22;;;;;;;10.45;4.72;;;;;;;;;;5028898;28;20026;-72
2022/11/15 08:00:47;;;;;;;14.88;5.57;;;;;;;;;;5029549;28;20114;-72
2022/11/15 08:03:15;;;;;;;15.48;4.85;;;;;;;;;;5029347;28;20024;-72
2022/11/15 08:05:41;;;;;;;13.20;5.00;;;;;;;;;;5029231;28;20120;-72
2022/11/15 08:08:09;;;;;;;12.38;5.13;;;;;;;;;;5028872;28;20435;-73
2022/11/15 08:10:35;;;;;;;13.05;5.15;;;;;;;;;;5011020;28;20030;-73
2022/11/15 08:13:04;;;;;;;12.80;5.22;;;;;;;;;;5028624;28;20402;-72
2022/11/15 08:15:30;;;;;;;15.52;5.13;;;;;;;;;;5029291;28;20053;-72
2022/11/15 08:17:57;;;;;;;12.50;5.00;;;;;;;;;;5028807;28;20037;-74
2022/11/15 08:20:23;;;;;;;15.20;5.70;;;;;;;;;;5029356;28;20053;-72
2022/11/15 08:22:48;;;;;;;14.38;5.75;;;;;;;;;;5029053;28;20690;-73
2022/11/15 08:25:15;;;;;;;15.48;5.40;;;;;;;;;;5029219;28;20017;-73
2022/11/15 08:27:40;;;;;;;16.27;5.55;;;;;;;;;;5028203;28;20068;-72
2022/11/15 08:30:06;;;;;;;15.57;5.55;;;;;;;;;;5029143;28;20045;-74
2022/11/15 08:32:32;;;;;;;13.52;5.13;;;;;;;;;;5028918;28;20048;-73
2022/11/15 08:34:57;;;;;;;21.88;5.95;;;;;;;;;;5011228;28;20593;-73
2022/11/15 08:37:23;;;;;;;13.85;5.43;;;;;;;;;;5028788;28;20029;-72
2022/11/15 08:39:48;;;;;;;14.65;5.25;;;;;;;;;;5029128;28;20040;-73
2022/11/15 08:42:14;;;;;;;19.48;5.03;;;;;;;;;;5028740;28;20022;-74
2022/11/15 08:44:40;;;;;;;14.18;5.35;;;;;;;;;;5029168;28;20071;-73
2022/11/15 08:47:05;;;;;;;10.88;4.80;;;;;;;;;;5028506;28;20472;-73
2022/11/15 08:49:31;;;;;;;12.30;4.97;;;;;;;;;;5028980;28;20053;-73
2022/11/15 08:51:56;;;;;;;15.68;5.68;;;;;;;;;;5028800;28;20635;-73
2022/11/15 08:54:21;;;;;;;14.48;5.50;;;;;;;;;;5028734;28;20033;-74
2022/11/15 08:56:47;;;;;;;13.77;5.13;;;;;;;;;;5028701;28;20021;-73
2022/11/15 08:59:13;;;;;;;16.08;5.85;;;;;;;;;;5028361;28;20097;-74
2022/11/15 09:01:38;;;;;;;15.50;5.60;;;;;;;;;;5028949;28;20022;-73
2022/11/15 09:04:04;;;;;;;14.30;5.65;;;;;;;;;;5028680;28;20369;-74
2022/11/15 09:06:30;;;;;;;13.55;5.35;;;;;;;;;;5010500;28;20045;-74
2022/11/15 09:08:56;;;;;;;13.45;5.30;;;;;;;;;;5028500;28;20084;-74
2022/11/15 09:11:23;;;;;;;11.20;5.30;;;;;;;;;;5028788;28;20040;-73
2022/11/15 09:13:49;;;;;;;14.90;5.53;;;;;;;;;;5028259;28;20036;-74
2022/11/15 09:16:15;;;;;;;15.30;5.28;;;;;;;;;;5028746;28;20033;-74
2022/11/15 09:18:41;;;;;;;14.27;5.55;;;;;;;;;;5028368;28;20381;-73
2022/11/15 09:21:07;;;;;;;12.95;5.40;;;;;;;;;;5029013;28;20091;-72
2022/11/15 09:23:33;;;;;;;11.90;4.82;;;;;;;;;;5031953;28;20472;-72
2022/11/15 09:26:00;;;;;;;12.85;5.32;;;;;;;;;;5032071;28;20033;-73
2022/11/15 09:28:27;;;;;;;12.95;5.05;;;;;;;;;;5031438;28;20041;-73
2022/11/15 09:30:59;;;;;;;15.05;5.53;;;;;;;;;;5032051;28;20041;-73
2022/11/15 09:33:25;;;;;;;10.15;5.20;;;;;;;;;;5031686;28;20393;-73
2022/11/15 09:35:51;;;;;;;15.95;5.32;;;;;;;;;;5032223;28;20631;-72
2022/11/15 09:38:17;;;;;;;11.63;4.80;;;;;;;;;;5031378;28;20498;-73
2022/11/15 09:40:42;;;;;;;12.27;4.97;;;;;;;;;;5031955;28;20033;-74
2022/11/15 09:43:25;;;;;;;12.02;5.95;;;;;;;;;;5031430;28;20034;-74
2022/11/15 09:45:50;;;;;;;15.07;5.10;;;;;;;;;;5014062;28;20438;-73
2022/11/15 09:48:18;;;;;;;14.20;5.13;;;;;;;;;;5013596;28;20496;-73
2022/11/15 09:50:49;;;;;;;10.77;4.82;;;;;;;;;;5031932;28;20040;-73
2022/11/15 09:53:40;;;;;;;9.27;4.72;;;;;;;;;;5031481;28;20032;-73
2022/11/15 09:56:17;;;;;;;10.40;4.75;;;;;;;;;;5031924;28;20120;-73
2022/11/15 09:59:10;;;;;;;12.75;5.18;;;;;;;;;;5030972;28;20075;-73
2022/11/15 10:01:55;;;;;;;16.65;5.40;;;;;;;;;;5031926;28;20041;-74
2022/11/15 10:04:22;;;;;;;10.00;4.97;;;;;;;;;;5031372;28;20080;-73
2022/11/15 10:07:00;;;;;;;11.05;4.80;;;;;;;;;;5031007;28;20042;-73
2022/11/15 10:09:55;;;;;;;14.60;4.75;;;;;;;;;;5031233;28;20064;-73
2022/11/15 10:12:20;;;;;;;9.63;4.75;;;;;;;;;;5031116;28;20416;-73
2022/11/15 10:14:49;;;;;;;8.57;4.55;;;;;;;;;;5031315;28;20469;-72
2022/11/15 10:17:20;;;;;;;11.95;4.47;;;;;;;;;;5031177;28;20037;-72
2022/11/15 10:20:00;;;;;;;10.77;5.00;;;;;;;;;;5031074;28;20057;-73
2022/11/15 10:22:54;;;;;;;9.52;4.70;;;;;;;;;;5013546;28;20087;-74
2022/11/15 10:25:26;;;;;;;14.57;5.00;;;;;;;;;;5030127;28;20099;-73
2022/11/15 10:28:17;;;;;;;8.88;4.50;;;;;;;;;;5030505;28;20045;-73
2022/11/15 10:30:47;;;;;;;15.25;4.82;;;;;;;;;;5031351;28;20026;-73
2022/11/15 10:33:36;;;;;;;10.23;4.47;;;;;;;;;;5030609;28;20721;-73
2022/11/15 10:36:13;;;;;;;8.57;4.20;;;;;;;;;;5031211;28;20109;-74
2022/11/15 10:38:47;;;;;;;9.13;4.10;;;;;;;;;;5030376;28;20091;-73
2022/11/15 10:41:14;;;;;;;12.85;4.30;;;;;;;;;;5030857;28;20034;-74
2022/11/15 10:43:39;;;;;;;15.02;4.85;;;;;;;;;;5030158;28;20037;-72
2022/11/15 10:46:38;;;;;;;11.05;4.20;;;;;;;;;;5030893;28;20028;-73
2022/11/15 10:49:31;;;;;;;12.75;4.57;;;;;;;;;;4986787;28;20045;-73
2022/11/15 10:52:18;;;;;;;14.52;4.32;;;;;;;;;;5030831;28;20029;-73
2022/11/15 10:55:02;;;;;;;9.50;4.68;;;;;;;;;;5030379;28;20071;-73
2022/11/15 10:57:48;;;;;;;9.88;4.43;;;;;;;;;;5030119;28;20030;-74
2022/11/15 11:00:19;;;;;;;9.88;4.45;;;;;;;;;;5030151;28;20021;-73
2022/11/15 11:03:06;;;;;;;14.90;4.43;;;;;;;;;;5030578;28;20060;-74
2022/11/15 11:05:39;;;;;;;12.02;4.22;;;;;;;;;;5029747;28;20132;-74
2022/11/15 11:08:10;;;;;;;12.50;4.57;;;;;;;;;;5029989;28;20034;-74
2022/11/15 11:10:37;;;;;;;6.78;4.00;;;;;;;;;;5030070;28;20448;-74
2022/11/15 11:13:24;;;;;;;9.85;4.03;;;;;;;;;;5029984;28;20057;-74
2022/11/15 11:16:13;;;;;;;9.13;3.97;;;;;;;;;;5012348;28;20018;-74
2022/11/15 11:19:17;;;;;;;10.35;4.20;;;;;;;;;;5019025;28;20073;-74
2022/11/15 11:22:00;;;;;;;6.78;4.05;;;;;;;;;;5012490;28;20032;-75
2022/11/15 11:24:52;;;;;;;6.00;3.90;;;;;;;;;;5012094;28;20049;-75
2022/11/15 11:27:36;;;;;;;10.57;4.50;;;;;;;;;;5029552;28;20195;-74
2022/11/15 11:30:17;;;;;;;8.23;4.18;;;;;;;;;;5029707;28;20025;-74
2022/11/15 11:32:49;;;;;;;9.02;4.30;;;;;;;;;;5030096;28;20056;-74
2022/11/15 11:35:24;;;;;;;10.93;4.70;;;;;;;;;;5029550;28;20102;-74
2022/11/15 11:37:53;;;;;;;8.93;4.22;;;;;;;;;;5011958;28;20059;-73
2022/11/15 11:40:57;;;;;;;8.35;4.15;;;;;;;;;;5029635;28;20041;-73
2022/11/15 11:43:29;;;;;;;7.65;3.88;;;;;;;;;;4948529;28;20042;-72
2022/11/15 11:46:32;;;;;;;8.95;4.32;;;;;;;;;;5015138;28;20040;-74
2022/11/15 11:49:39;;;;;;;11.45;4.47;;;;;;;;;;4985157;28;20680;-74
2022/11/15 11:52:26;;;;;;;9.32;4.50;;;;;;;;;;4990098;28;20045;-74
2022/11/15 11:55:03;;;;;;;9.00;4.05;;;;;;;;;;5029213;28;20029;-73
2022/11/15 11:57:47;;;;;;;11.38;4.20;;;;;;;;;;5028942;28;20025;-72
2022/11/15 12:00:20;;;;;;;8.40;4.13;;;;;;;;;;5011388;28;20544;-73
2022/11/15 12:03:38;;;;;;;11.98;4.07;;;;;;;;;;5029611;28;20026;-73
2022/11/15 12:06:26;;;;;;;8.05;4.18;;;;;;;;;;5010587;28;20409;-72
2022/11/15 12:09:03;;;;;;;8.82;4.20;;;;;;;;;;5029223;28;20029;-74
2022/11/15 12:11:51;;;;;;;7.70;3.80;;;;;;;;;;5029238;28;20030;-73
2022/11/15 12:14:27;;;;;;;11.68;4.30;;;;;;;;;;5011633;28;20440;-74
2022/11/15 12:16:52;;;;;;;12.40;4.50;;;;;;;;;;5029346;28;20075;-73
2022/11/15 12:19:18;;;;;;;8.65;4.30;;;;;;;;;;5011511;28;20029;-73
2022/11/15 12:21:54;;;;;;;11.23;4.32;;;;;;;;;;5028842;28;20493;-73
2022/11/15 12:24:19;;;;;;;9.43;4.63;;;;;;;;;;5029200;28;20041;-73
2022/11/15 12:27:19;;;;;;;8.38;4.30;;;;;;;;;;5029022;28;20037;-73
2022/11/15 12:29:54;;;;;;;9.00;4.50;;;;;;;;;;5028868;28;20029;-73
2022/11/15 12:32:19;;;;;;;9.80;4.22;;;;;;;;;;5029310;28;20022;-72
2022/11/15 12:34:48;;;;;;;10.23;4.63;;;;;;;;;;5028577;28;20025;-72
2022/11/15 12:37:33;;;;;;;11.80;4.68;;;;;;;;;;5029030;28;20021;-73
2022/11/15 12:40:25;;;;;;;10.23;4.32;;;;;;;;;;5028630;28;20501;-74
2022/11/15 12:43:10;;;;;;;12.77;4.93;;;;;;;;;;5028571;28;20037;-73
2022/11/15 12:45:41;;;;;;;10.80;4.43;;;;;;;;;;5028916;28;20026;-74
2022/11/15 12:48:15;;;;;;;9.93;4.72;;;;;;;;;;5028819;28;20038;-74
2022/11/15 12:50:50;;;;;;;9.65;4.90;;;;;;;;;;5011397;28;20032;-73
2022/11/15 12:53:24;;;;;;;14.45;4.80;;;;;;;;;;5011397;28;20120;-73
2022/11/15 12:56:17;;;;;;;16.10;4.57;;;;;;;;;;5030173;28;20029;-73
2022/11/15 12:58:52;;;;;;;10.75;4.43;;;;;;;;;;5032115;28;20469;-74
2022/11/15 13:01:35;;;;;;;11.50;4.38;;;;;;;;;;5032417;28;20060;-73
2022/11/15 13:04:19;;;;;;;11.85;4.70;;;;;;;;;;5032566;28;20040;-73
2022/11/15 13:06:59;;;;;;;10.70;4.38;;;;;;;;;;5032085;28;20129;-72
2022/11/15 13:09:37;;;;;;;14.38;4.90;;;;;;;;;;5032500;28;20421;-73
2022/11/15 13:12:21;;;;;;;16.00;4.75;;;;;;;;;;5032264;28;20473;-72
2022/11/15 13:15:21;;;;;;;11.07;4.65;;;;;;;;;;5032514;28;20025;-73
2022/11/15 13:17:53;;;;;;;10.48;4.70;;;;;;;;;;5022150;28;20053;-73
2022/11/15 13:20:19;;;;;;;7.57;4.22;;;;;;;;;;5031967;28;20037;-74
2022/11/15 13:23:08;;;;;;;10.90;4.35;;;;;;;;;;5032333;28;20033;-73
2022/11/15 13:25:57;;;;;;;10.43;4.47;;;;;;;;;;5032020;28;20504;-73
2022/11/15 13:28:38;;;;;;;9.30;4.63;;;;;;;;;;5021203;28;20053;-72
2022/11/15 13:31:29;;;;;;;10.93;4.90;;;;;;;;;;5032080;28;20064;-73
2022/11/15 13:33:59;;;;;;;9.18;4.22;;;;;;;;;;5032142;28;20112;-73
2022/11/15 13:36:29;;;;;;;14.23;5.00;;;;;;;;;;5031836;28;20025;-73
2022/11/15 13:39:25;;;;;;;9.25;4.13;;;;;;;;;;5032100;28;20433;-74
2022/11/15 13:41:51;;;;;;;9.40;4.20;;;;;;;;;;5008752;28;20041;-73
2022/11/15 13:44:30;;;;;;;13.57;4.70;;;;;;;;;;5031808;28;20025;-74
2022/11/15 13:47:12;;;;;;;11.32;4.18;;;;;;;;;;5031739;28;20021;-73
2022/11/15 13:49:37;;;;;;;11.95;4.43;;;;;;;;;;5031698;28;20052;-72
2022/11/15 13:52:06;;;;;;;9.68;4.18;;;;;;;;;;5031802;28;20057;-73
2022/11/15 13:54:43;;;;;;;12.18;4.28;;;;;;;;;;5031540;28;20079;-74
2022/11/15 13:57:12;;;;;;;12.65;4.50;;;;;;;;;;5031030;28;20470;-74
2022/11/15 13:59:49;;;;;;;12.02;4.28;;;;;;;;;;5031112;28;20029;-73
2022/11/15 14:02:18;;;;;;;12.05;3.88;;;;;;;;;;5031321;28;20100;-73
2022/11/15 14:04:50;;;;;;;8.43;3.88;;;;;;;;;;5013723;28;20509;-73
2022/11/15 14:07:19;;;;;;;8.23;4.18;;;;;;;;;;5012544;28;20041;-74
2022/11/15 14:09:46;;;;;;;12.75;4.47;;;;;;;;;;5030971;28;20049;-73
2022/11/15 14:12:33;;;;;;;11.18;4.45;;;;;;;;;;5012933;28;20026;-73
2022/11/15 14:15:02;;;;;;;9.38;3.95;;;;;;;;;;5031459;28;20025;-73
2022/11/15 14:17:30;;;;;;;9.75;3.92;;;;;;;;;;5031075;28;20029;-73
2022/11/15 14:19:57;;;;;;;9.05;3.80;;;;;;;;;;5031085;28;20035;-73
2022/11/15 14:22:28;;;;;;;10.63;4.20;;;;;;;;;;5030652;28;20037;-72
2022/11/15 14:25:12;;;;;;;;;;;;;;;;;;5013524;28;20041;-73
2022/11/15 14:27:37;;;;;;;11.98;3.97;;;;;;;;;;5030414;28;19991;-73
2022/11/15 14:30:03;;;;;;;12.25;4.22;;;;;;;;;;5031160;28;20033;-72
2022/11/15 14:32:41;;;;;;;9.70;4.20;;;;;;;;;;5030736;28;20035;-72
2022/11/15 14:35:15;;;;;;;8.95;4.22;;;;;;;;;;5030678;28;20026;-72
2022/11/15 14:37:40;;;;;;;12.35;4.60;;;;;;;;;;5030576;28;20048;-72
2022/11/15 14:40:09;;;;;;;10.75;4.13;;;;;;;;;;5030851;28;20513;-72
2022/11/15 14:42:34;;;;;;;9.63;4.40;;;;;;;;;;5012186;28;20032;-72
2022/11/15 14:45:00;;;;;;;8.68;4.20;;;;;;;;;;5030578;28;20021;-72
2022/11/15 14:47:25;;;;;;;11.23;4.40;;;;;;;;;;5012680;28;20405;-73
2022/11/15 14:49:51;;;;;;;10.60;4.43;;;;;;;;;;5030760;28;20029;-72
2022/11/15 14:52:23;;;;;;;11.70;4.43;;;;;;;;;;5030500;28;20026;-73
2022/11/15 14:54:48;;;;;;;8.32;4.00;;;;;;;;;;5030253;28;20033;-72
2022/11/15 14:57:13;;;;;;;11.70;4.43;;;;;;;;;;5029520;28;20029;-72
2022/11/15 14:59:39;;;;;;;10.45;4.28;;;;;;;;;;5030109;28;20033;-72
2022/11/15 15:02:14;;;;;;;10.13;4.20;;;;;;;;;;5030275;28;20025;-72
2022/11/15 15:04:40;;;;;;;8.25;4.30;;;;;;;;;;5030521;28;20026;-73
2022/11/15 15:07:05;;;;;;;13.93;4.70;;;;;;;;;;5029975;28;20478;-73
2022/11/15 15:09:31;;;;;;;12.88;4.43;;;;;;;;;;5030033;28;20033;-73
2022/11/15 15:11:56;;;;;;;9.38;4.47;;;;;;;;;;5029769;28;20025;-73